createdAt,value
2023-01-15T00:01:56.057Z,1.33
2023-01-15T00:04:23.144Z,1.25
2023-01-15T00:06:50.537Z,1.48
2023-01-15T00:09:17.704Z,1.40
2023-01-15T00:11:44.700Z,1.35
2023-01-15T00:14:13.131Z,1.50
2023-01-15T00:16:40.655Z,1.48
2023-01-15T00:19:10.465Z,1.30
2023-01-15T00:21:37.586Z,1.30
2023-01-15T00:24:24.730Z,1.27
2023-01-15T00:27:11.735Z,1.60
2023-01-15T00:29:38.781Z,1.30
2023-01-15T00:32:07.045Z,1.10
2023-01-15T00:34:34.581Z,1.17
2023-01-15T00:37:02.025Z,1.20
2023-01-15T00:39:29.110Z,1.10
2023-01-15T00:41:56.679Z,1.10
2023-01-15T00:44:24.031Z,1.08
2023-01-15T00:46:51.172Z,1.25
2023-01-15T00:49:18.348Z,1.20
2023-01-15T00:51:45.548Z,1.00
2023-01-15T00:54:12.630Z,1.10
2023-01-15T00:56:39.710Z,1.10
2023-01-15T00:59:06.839Z,1.00
2023-01-15T01:01:34.455Z,1.10
2023-01-15T01:04:01.996Z,1.00
2023-01-15T01:06:29.266Z,1.00
2023-01-15T01:08:56.886Z,1.00
2023-01-15T01:11:26.634Z,1.00
2023-01-15T01:13:54.950Z,1.13
2023-01-15T01:16:27.889Z,0.88
2023-01-15T01:18:55.084Z,1.00
2023-01-15T01:21:22.289Z,1.00
2023-01-15T01:23:49.675Z,0.80
2023-01-15T01:26:17.215Z,0.93
2023-01-15T01:28:44.346Z,0.90
2023-01-15T01:31:11.670Z,1.00
2023-01-15T01:33:38.852Z,0.90
2023-01-15T01:36:06.002Z,0.80
2023-01-15T01:38:33.127Z,0.68
2023-01-15T01:41:00.223Z,1.00
2023-01-15T01:43:28.662Z,0.80
2023-01-15T01:45:56.227Z,0.70
2023-01-15T01:48:26.788Z,0.90
2023-01-15T01:50:54.962Z,1.00
2023-01-15T01:53:23.706Z,0.80
2023-01-15T01:55:51.419Z,0.70
2023-01-15T01:58:18.862Z,0.70
2023-01-15T02:00:48.121Z,0.80
2023-01-15T02:03:15.381Z,1.00
2023-01-15T02:05:46.622Z,0.80
2023-01-15T02:08:13.699Z,0.75
2023-01-15T02:10:41.462Z,0.63
2023-01-15T02:13:11.676Z,0.73
2023-01-15T02:15:41.340Z,0.65
2023-01-15T02:18:12.543Z,0.73
2023-01-15T02:20:46.057Z,0.60
2023-01-15T02:23:33.013Z,0.57
2023-01-15T02:26:19.962Z,0.70
2023-01-15T02:28:47.987Z,0.57
2023-01-15T02:31:18.550Z,0.65
2023-01-15T02:33:52.711Z,0.60
2023-01-15T02:36:22.500Z,0.50
2023-01-15T02:38:50.269Z,0.60
2023-01-15T02:41:19.864Z,0.50
2023-01-15T02:43:48.608Z,0.60
2023-01-15T02:46:17.050Z,0.75
2023-01-15T02:48:47.889Z,0.60
2023-01-15T02:51:16.523Z,0.63
2023-01-15T02:53:45.119Z,0.57
2023-01-15T02:56:14.204Z,0.68
2023-01-15T02:58:43.037Z,0.63
2023-01-15T03:01:13.032Z,0.50
2023-01-15T03:03:46.403Z,0.60
2023-01-15T03:06:33.442Z,0.55
2023-01-15T03:09:00.614Z,0.50
2023-01-15T03:11:27.898Z,0.60
2023-01-15T03:14:14.899Z,0.50
2023-01-15T03:16:46.373Z,0.77
2023-01-15T03:19:23.214Z,0.60
2023-01-15T03:21:54.367Z,0.60
2023-01-15T03:24:26.180Z,0.68
2023-01-15T03:26:53.854Z,0.70
2023-01-15T03:29:21.787Z,0.60
2023-01-15T03:31:49.920Z,0.55
2023-01-15T03:34:17.048Z,0.57
2023-01-15T03:36:44.323Z,0.55
2023-01-15T03:39:11.447Z,0.43
2023-01-15T03:41:50.987Z,0.50
2023-01-15T03:44:25.716Z,0.55
2023-01-15T03:46:56.089Z,0.52
2023-01-15T03:49:27.383Z,0.60
2023-01-15T03:52:14.347Z,0.55
2023-01-15T03:54:48.866Z,0.52
2023-01-15T03:57:20.392Z,0.47
2023-01-15T03:59:56.985Z,0.52
2023-01-15T04:02:24.923Z,0.50
2023-01-15T04:04:53.092Z,0.70
2023-01-15T04:07:20.596Z,0.65
2023-01-15T04:09:47.972Z,0.60
2023-01-15T04:12:15.078Z,0.60
2023-01-15T04:14:42.119Z,0.60
2023-01-15T04:17:08.876Z,0.40
2023-01-15T04:19:35.943Z,0.52
2023-01-15T04:22:03.254Z,0.60
2023-01-15T04:24:30.392Z,0.70
2023-01-15T04:26:57.531Z,0.80
2023-01-15T04:29:26.178Z,0.85
2023-01-15T04:31:57.357Z,0.60
2023-01-15T04:34:26.036Z,0.60
2023-01-15T04:36:53.203Z,0.50
2023-01-15T04:39:20.295Z,0.55
2023-01-15T04:42:07.283Z,0.60
2023-01-15T04:44:35.734Z,0.70
2023-01-15T04:47:02.863Z,0.67
2023-01-15T04:49:30.014Z,0.70
2023-01-15T04:51:57.223Z,0.57
2023-01-15T04:54:24.381Z,0.50
2023-01-15T04:56:52.843Z,0.60
2023-01-15T04:59:21.306Z,0.50
2023-01-15T05:02:02.578Z,0.60
2023-01-15T05:04:31.621Z,0.50
2023-01-15T05:06:58.712Z,0.50
2023-01-15T05:09:25.808Z,0.60
2023-01-15T05:11:52.881Z,0.60
2023-01-15T05:14:20.062Z,0.60
2023-01-15T05:16:47.117Z,0.50
2023-01-15T05:19:14.186Z,0.52
2023-01-15T05:21:42.428Z,0.50
2023-01-15T05:24:12.922Z,0.50
2023-01-15T05:26:39.643Z,0.60
2023-01-15T05:29:06.796Z,0.50
2023-01-15T05:31:33.854Z,0.50
2023-01-15T05:34:01.287Z,0.55
2023-01-15T05:36:30.292Z,0.60
2023-01-15T05:39:01.383Z,0.75
2023-01-15T05:41:48.844Z,0.47
2023-01-15T05:44:17.575Z,0.50
2023-01-15T05:46:45.159Z,0.40
2023-01-15T05:49:13.897Z,0.50
2023-01-15T05:51:41.467Z,0.40
2023-01-15T05:54:11.410Z,0.60
2023-01-15T05:56:39.015Z,0.50
2023-01-15T05:59:06.926Z,0.52
2023-01-15T06:01:34.072Z,0.50
2023-01-15T06:04:01.964Z,0.40
2023-01-15T06:06:29.680Z,0.40
2023-01-15T06:08:56.914Z,0.50
2023-01-15T06:11:24.164Z,0.40
2023-01-15T06:13:51.881Z,0.32
2023-01-15T06:16:19.075Z,0.40
2023-01-15T06:18:46.433Z,0.43
2023-01-15T06:21:14.237Z,0.50
2023-01-15T06:23:41.217Z,0.52
2023-01-15T06:26:11.957Z,0.50
2023-01-15T06:28:39.025Z,0.50
2023-01-15T06:31:10.540Z,0.40
2023-01-15T06:33:37.905Z,0.57
2023-01-15T06:36:06.494Z,0.60
2023-01-15T06:38:33.953Z,0.55
2023-01-15T06:41:01.481Z,0.40
2023-01-15T06:43:48.515Z,0.40
2023-01-15T06:46:36.801Z,0.40
2023-01-15T06:49:03.903Z,0.50
2023-01-15T06:51:31.352Z,0.10
2023-01-15T06:53:58.483Z,0.10
2023-01-15T06:56:25.605Z,0.05
2023-01-15T06:58:52.654Z,0.10
2023-01-15T07:01:19.796Z,0.10
2023-01-15T07:03:46.969Z,0.10
2023-01-15T07:06:14.310Z,0.10
2023-01-15T07:08:41.475Z,0.10
2023-01-15T07:11:09.849Z,0.10
2023-01-15T07:13:37.529Z,0.10
2023-01-15T07:16:05.310Z,0.10
2023-01-15T07:18:33.575Z,0.10
2023-01-15T07:21:00.871Z,0.20
2023-01-15T07:23:28.456Z,0.10
2023-01-15T07:25:55.904Z,0.10
2023-01-15T07:28:23.500Z,0.10
2023-01-15T07:30:50.610Z,0.10
2023-01-15T07:33:17.765Z,0.10
2023-01-15T07:35:46.809Z,0.05
2023-01-15T07:38:13.915Z,0.00
2023-01-15T07:40:41.034Z,0.10
2023-01-15T07:43:28.985Z,0.10
2023-01-15T07:46:15.974Z,0.00
2023-01-15T07:49:02.909Z,0.00
2023-01-15T07:51:29.993Z,0.10
2023-01-15T07:53:57.041Z,0.10
2023-01-15T07:56:24.102Z,0.00
2023-01-15T07:58:51.184Z,0.10
2023-01-15T08:01:18.333Z,0.10
2023-01-15T08:03:45.553Z,0.10
2023-01-15T08:06:12.554Z,0.10
2023-01-15T08:08:39.679Z,0.10
2023-01-15T08:11:26.567Z,0.10
2023-01-15T08:14:13.141Z,0.20
2023-01-15T08:16:40.316Z,0.20
2023-01-15T08:19:07.445Z,0.13
2023-01-15T08:21:34.436Z,0.00
2023-01-15T08:24:01.465Z,0.17
2023-01-15T08:26:28.557Z,0.10
2023-01-15T08:28:55.757Z,0.10
2023-01-15T08:31:22.877Z,0.10
2023-01-15T08:33:50.145Z,0.00
2023-01-15T08:36:18.269Z,0.00
2023-01-15T08:38:45.429Z,0.08
2023-01-15T08:41:12.502Z,0.10
2023-01-15T08:43:39.628Z,0.10
2023-01-15T08:46:07.088Z,0.10
2023-01-15T08:48:34.214Z,0.17
2023-01-15T08:51:04.748Z,0.10
2023-01-15T08:53:31.826Z,0.00
2023-01-15T08:55:58.895Z,0.10
2023-01-15T08:58:27.988Z,0.10
2023-01-15T09:00:55.149Z,0.10
2023-01-15T09:03:22.306Z,0.10
2023-01-15T09:05:49.315Z,0.13
2023-01-15T09:08:16.505Z,0.00
2023-01-15T09:10:43.615Z,0.10
2023-01-15T09:13:10.918Z,0.10
2023-01-15T09:15:38.188Z,0.10
2023-01-15T09:18:05.435Z,0.10
2023-01-15T09:20:34.104Z,0.10
2023-01-15T09:23:01.262Z,0.10
2023-01-15T09:25:28.360Z,0.00
2023-01-15T09:27:57.059Z,0.10
2023-01-15T09:30:25.937Z,0.10
2023-01-15T09:32:52.991Z,0.03
2023-01-15T09:35:20.066Z,0.10
2023-01-15T09:37:51.211Z,0.10
2023-01-15T09:40:38.207Z,0.40
2023-01-15T09:43:07.667Z,0.10
2023-01-15T09:45:38.369Z,0.10
2023-01-15T09:48:13.938Z,0.10
2023-01-15T09:50:48.593Z,0.10
2023-01-15T09:53:25.163Z,0.30
2023-01-15T09:55:53.301Z,0.17
2023-01-15T09:58:22.539Z,0.22
2023-01-15T10:00:51.211Z,0.10
2023-01-15T10:03:38.029Z,0.10
2023-01-15T10:06:06.893Z,0.10
2023-01-15T10:08:39.985Z,0.00
2023-01-15T10:11:22.138Z,0.00
2023-01-15T10:14:09.158Z,0.20
2023-01-15T10:16:36.468Z,0.10
2023-01-15T10:19:04.018Z,0.20
2023-01-15T10:21:40.571Z,0.10
2023-01-15T10:24:11.883Z,0.10
2023-01-15T10:26:54.399Z,0.10
2023-01-15T10:29:24.759Z,0.08
2023-01-15T10:31:53.148Z,0.00
2023-01-15T10:34:40.153Z,0.10
2023-01-15T10:37:08.150Z,0.10
2023-01-15T10:39:37.754Z,0.00
2023-01-15T10:42:15.886Z,0.10
2023-01-15T10:44:50.406Z,0.10
2023-01-15T10:47:19.143Z,0.10
2023-01-15T10:49:49.064Z,0.10
2023-01-15T10:52:22.887Z,0.10
2023-01-15T10:54:52.684Z,0.00
2023-01-15T10:57:24.536Z,0.10
2023-01-15T10:59:53.798Z,0.10
2023-01-15T11:02:25.550Z,0.25
2023-01-15T11:04:54.230Z,0.10
2023-01-15T11:07:23.340Z,0.35
2023-01-15T11:09:50.787Z,0.10
2023-01-15T11:12:22.821Z,0.00
2023-01-15T11:15:09.832Z,0.10
2023-01-15T11:18:02.302Z,0.10
2023-01-15T11:20:32.562Z,0.10
2023-01-15T11:23:07.708Z,0.30
2023-01-15T11:25:34.946Z,0.20
2023-01-15T11:28:04.186Z,0.27
2023-01-15T11:30:33.121Z,0.10
2023-01-15T11:33:04.046Z,0.10
2023-01-15T11:35:31.297Z,0.30
2023-01-15T11:38:07.314Z,0.30
2023-01-15T11:40:34.644Z,0.20
2023-01-15T11:43:21.672Z,0.30
2023-01-15T11:46:11.786Z,0.10
2023-01-15T11:49:07.199Z,0.10
2023-01-15T11:51:39.254Z,0.10
2023-01-15T11:54:08.949Z,0.30
2023-01-15T11:56:36.819Z,0.20
2023-01-15T11:59:09.904Z,0.10
2023-01-15T12:01:38.236Z,0.10
2023-01-15T12:04:06.755Z,0.10
2023-01-15T12:06:36.380Z,0.10
2023-01-15T12:09:04.424Z,0.10
2023-01-15T12:11:38.525Z,0.03
2023-01-15T12:14:06.386Z,0.00
2023-01-15T12:16:40.520Z,0.10
2023-01-15T12:19:27.597Z,0.13
2023-01-15T12:21:59.884Z,0.10
2023-01-15T12:24:26.938Z,0.30
2023-01-15T12:27:05.268Z,0.00
2023-01-15T12:29:39.504Z,0.00
2023-01-15T12:32:11.866Z,0.10
2023-01-15T12:34:58.853Z,0.30
2023-01-15T12:37:27.677Z,0.20
2023-01-15T12:39:54.747Z,0.10
2023-01-15T12:42:43.198Z,0.10
2023-01-15T12:45:13.241Z,0.00
2023-01-15T12:47:50.564Z,0.00
2023-01-15T12:50:23.264Z,0.30
2023-01-15T12:52:52.831Z,0.10
2023-01-15T12:55:21.607Z,0.10
2023-01-15T12:57:51.923Z,0.00
2023-01-15T13:00:22.573Z,0.00
2023-01-15T13:02:52.202Z,0.10
2023-01-15T13:05:22.289Z,0.10
2023-01-15T13:07:49.459Z,0.00
2023-01-15T13:10:18.518Z,0.00
2023-01-15T13:12:45.615Z,0.00
2023-01-15T13:15:14.512Z,0.10
2023-01-15T13:17:57.279Z,0.03
2023-01-15T13:20:32.171Z,0.00
2023-01-15T13:23:19.498Z,0.00
2023-01-15T13:26:02.074Z,0.00
2023-01-15T13:28:32.533Z,0.30
2023-01-15T13:31:00.598Z,0.10
2023-01-15T13:33:34.486Z,0.00
2023-01-15T13:36:09.985Z,0.10
2023-01-15T13:38:39.740Z,0.10
2023-01-15T13:41:08.504Z,0.10
2023-01-15T13:43:39.228Z,0.10
2023-01-15T13:46:07.524Z,0.10
2023-01-15T13:48:36.669Z,0.10
2023-01-15T13:51:05.233Z,0.10
2023-01-15T13:53:34.813Z,0.10
2023-01-15T13:56:06.014Z,0.10
2023-01-15T13:58:34.721Z,0.20
2023-01-15T14:01:03.080Z,0.82
2023-01-15T14:03:32.073Z,0.10
2023-01-15T14:06:00.486Z,2.80
2023-01-15T14:08:38.501Z,1.50
2023-01-15T14:11:05.682Z,1.45
2023-01-15T14:13:32.775Z,1.30
2023-01-15T14:16:19.843Z,1.20
2023-01-15T14:18:57.988Z,1.10
2023-01-15T14:21:40.721Z,1.38
2023-01-15T14:24:27.885Z,1.30
2023-01-15T14:26:54.952Z,1.25
2023-01-15T14:29:41.933Z,1.45
2023-01-15T14:32:13.190Z,1.70
2023-01-15T14:34:41.403Z,1.20
2023-01-15T14:37:23.609Z,1.10
2023-01-15T14:39:53.392Z,1.20
2023-01-15T14:42:41.366Z,1.20
2023-01-15T14:45:11.661Z,1.20
2023-01-15T14:47:47.764Z,1.40
2023-01-15T14:50:24.457Z,1.80
2023-01-15T14:52:52.837Z,1.58
2023-01-15T14:55:20.968Z,1.90
2023-01-15T14:58:02.322Z,1.52
2023-01-15T15:00:33.469Z,2.70
2023-01-15T15:03:02.056Z,2.60
2023-01-15T15:05:30.474Z,3.08
2023-01-15T15:07:57.916Z,2.00
2023-01-15T15:10:26.217Z,2.30
2023-01-15T15:12:57.453Z,2.22
2023-01-15T15:15:25.576Z,2.20
2023-01-15T15:18:12.601Z,2.15
2023-01-15T15:20:42.955Z,1.45
2023-01-15T15:23:16.116Z,1.90
2023-01-15T15:25:44.008Z,2.40
2023-01-15T15:28:12.078Z,1.90
2023-01-15T15:30:44.493Z,2.60
2023-01-15T15:33:16.795Z,2.72
2023-01-15T15:35:46.540Z,2.50
2023-01-15T15:38:16.180Z,2.38
2023-01-15T15:40:46.071Z,2.30
2023-01-15T15:43:39.394Z,2.40
2023-01-15T15:46:26.510Z,2.88
2023-01-15T15:48:57.962Z,3.45
2023-01-15T15:51:34.070Z,2.13
2023-01-15T15:54:04.451Z,2.83
2023-01-15T15:56:32.992Z,2.10
2023-01-15T15:59:00.653Z,2.83
2023-01-15T16:01:27.900Z,2.03
2023-01-15T16:03:55.953Z,2.22
2023-01-15T16:06:25.952Z,3.37
2023-01-15T16:08:53.988Z,3.88
2023-01-15T16:11:23.759Z,3.53
2023-01-15T16:13:52.643Z,3.97
2023-01-15T16:16:21.424Z,4.87
2023-01-15T16:18:51.210Z,4.95
2023-01-15T16:21:20.797Z,4.50
2023-01-15T16:24:07.781Z,3.22
2023-01-15T16:26:34.887Z,3.90
2023-01-15T16:29:04.829Z,2.45
2023-01-15T16:31:33.891Z,2.60
2023-01-15T16:34:01.056Z,3.10
2023-01-15T16:36:28.590Z,5.20
2023-01-15T16:38:55.998Z,4.47
2023-01-15T16:41:29.511Z,4.70
2023-01-15T16:43:59.512Z,6.35
2023-01-15T16:46:29.350Z,7.97
2023-01-15T16:49:16.347Z,8.45
2023-01-15T16:51:43.495Z,2.70
2023-01-15T16:54:30.570Z,1.80
2023-01-15T16:57:17.567Z,1.63
2023-01-15T16:59:44.634Z,2.25
2023-01-15T17:02:15.303Z,3.50
2023-01-15T17:04:44.296Z,3.20
2023-01-15T17:07:14.654Z,2.70
2023-01-15T17:09:46.415Z,2.07
2023-01-15T17:12:23.431Z,3.15
2023-01-15T17:14:50.603Z,2.10
2023-01-15T17:17:26.404Z,3.10
2023-01-15T17:19:55.860Z,3.60
2023-01-15T17:22:25.604Z,3.80
2023-01-15T17:24:54.051Z,3.90
2023-01-15T17:27:21.308Z,3.58
2023-01-15T17:29:48.479Z,3.90
2023-01-15T17:32:17.083Z,4.60
2023-01-15T17:34:44.235Z,3.63
2023-01-15T17:37:11.223Z,3.50
2023-01-15T17:39:38.384Z,3.13
2023-01-15T17:42:12.973Z,2.00
2023-01-15T17:44:40.103Z,1.80
2023-01-15T17:47:07.266Z,2.00
2023-01-15T17:49:34.381Z,2.00
2023-01-15T17:52:01.625Z,2.05
2023-01-15T17:54:48.647Z,1.80
2023-01-15T17:57:35.606Z,1.83
2023-01-15T18:00:22.294Z,1.88
2023-01-15T18:03:09.334Z,1.90
2023-01-15T18:05:36.568Z,2.40
2023-01-15T18:08:04.729Z,2.50
2023-01-15T18:10:31.939Z,2.10
2023-01-15T18:12:59.119Z,2.00
2023-01-15T18:15:26.269Z,1.92
2023-01-15T18:17:53.264Z,1.98
2023-01-15T18:20:20.463Z,1.90
2023-01-15T18:22:47.536Z,2.38
2023-01-15T18:25:14.599Z,2.20
2023-01-15T18:27:45.154Z,2.33
2023-01-15T18:30:15.085Z,2.13
2023-01-15T18:32:42.770Z,1.70
2023-01-15T18:35:11.333Z,2.10
2023-01-15T18:37:38.592Z,2.13
2023-01-15T18:40:05.961Z,2.40
2023-01-15T18:42:52.953Z,1.90
2023-01-15T18:45:39.922Z,2.00
2023-01-15T18:48:07.181Z,2.00
2023-01-15T18:50:34.259Z,2.10
2023-01-15T18:53:01.365Z,1.95
2023-01-15T18:55:28.576Z,2.20
2023-01-15T18:57:56.199Z,1.67
2023-01-15T19:00:24.267Z,5.03
2023-01-15T19:02:51.967Z,2.42
2023-01-15T19:05:19.325Z,3.28
2023-01-15T19:07:46.945Z,2.58
2023-01-15T19:10:14.500Z,2.20
2023-01-15T19:12:41.580Z,2.08
2023-01-15T19:15:28.798Z,2.00
2023-01-15T19:18:15.766Z,2.08
2023-01-15T19:20:42.894Z,1.77
2023-01-15T19:23:10.023Z,1.60
2023-01-15T19:25:37.087Z,1.52
2023-01-15T19:28:04.321Z,1.67
2023-01-15T19:30:32.582Z,1.95
2023-01-15T19:32:59.664Z,1.35
2023-01-15T19:35:26.803Z,1.40
2023-01-15T19:37:55.042Z,2.00
2023-01-15T19:40:22.916Z,1.92
2023-01-15T19:43:11.038Z,1.60
2023-01-15T19:46:00.856Z,2.15
2023-01-15T19:48:48.037Z,1.70
2023-01-15T19:51:15.151Z,1.83
2023-01-15T19:53:42.237Z,1.40
2023-01-15T19:56:09.355Z,1.08
2023-01-15T19:58:37.876Z,1.50
2023-01-15T20:01:05.398Z,1.77
2023-01-15T20:03:32.653Z,1.50
2023-01-15T20:05:59.729Z,1.98
2023-01-15T20:08:27.156Z,1.20
2023-01-15T20:10:54.277Z,1.35
2023-01-15T20:13:42.653Z,1.60
2023-01-15T20:16:11.250Z,1.50
2023-01-15T20:18:38.460Z,1.58
2023-01-15T20:21:05.632Z,1.60
2023-01-15T20:23:32.890Z,1.52
2023-01-15T20:26:02.338Z,2.00
2023-01-15T20:28:29.504Z,2.10
2023-01-15T20:30:57.548Z,1.30
2023-01-15T20:33:25.333Z,1.80
2023-01-15T20:35:54.066Z,1.70
2023-01-15T20:38:22.646Z,2.92
2023-01-15T20:40:51.993Z,1.77
2023-01-15T20:43:39.925Z,2.00
2023-01-15T20:46:08.351Z,1.83
2023-01-15T20:48:55.372Z,1.50
2023-01-15T20:51:22.497Z,1.85
2023-01-15T20:53:51.408Z,2.17
2023-01-15T20:56:18.862Z,1.92
2023-01-15T20:58:46.241Z,1.90
2023-01-15T21:01:14.620Z,1.70
2023-01-15T21:03:41.813Z,1.77
2023-01-15T21:06:09.814Z,1.70
2023-01-15T21:08:37.179Z,1.77
2023-01-15T21:11:04.355Z,1.65
2023-01-15T21:13:31.447Z,1.75
2023-01-15T21:15:59.835Z,1.92
2023-01-15T21:18:27.858Z,1.92
2023-01-15T21:20:55.249Z,1.95
2023-01-15T21:23:22.667Z,1.53
2023-01-15T21:25:49.825Z,1.80
2023-01-15T21:28:16.941Z,2.20
2023-01-15T21:30:44.761Z,1.80
2023-01-15T21:33:11.945Z,1.60
2023-01-15T21:35:40.321Z,1.70
2023-01-15T21:38:07.848Z,2.88
2023-01-15T21:40:36.126Z,1.80
2023-01-15T21:43:23.545Z,2.58
2023-01-15T21:45:51.265Z,2.40
2023-01-15T21:48:18.824Z,5.50
2023-01-15T21:50:45.981Z,2.20
2023-01-15T21:53:13.141Z,1.90
2023-01-15T21:55:40.301Z,1.95
2023-01-15T21:58:07.335Z,1.80
2023-01-15T22:00:34.540Z,2.35
2023-01-15T22:03:01.758Z,1.60
2023-01-15T22:05:28.840Z,1.65
2023-01-15T22:07:56.181Z,1.83
2023-01-15T22:10:23.946Z,2.17
2023-01-15T22:12:51.032Z,1.80
2023-01-15T22:15:18.056Z,1.70
2023-01-15T22:17:45.149Z,2.30
2023-01-15T22:20:12.542Z,2.47
2023-01-15T22:22:39.999Z,1.80
2023-01-15T22:25:08.671Z,1.65
2023-01-15T22:27:40.560Z,1.60
2023-01-15T22:30:09.262Z,1.60
2023-01-15T22:32:36.432Z,1.40
2023-01-15T22:35:04.072Z,1.40
2023-01-15T22:37:31.124Z,1.33
2023-01-15T22:39:58.273Z,1.35
2023-01-15T22:42:27.165Z,1.50
2023-01-15T22:44:55.735Z,1.50
2023-01-15T22:47:23.265Z,1.42
2023-01-15T22:49:50.722Z,1.60
2023-01-15T22:52:17.845Z,1.45
2023-01-15T22:54:45.272Z,1.30
2023-01-15T22:57:13.428Z,1.52
2023-01-15T22:59:40.495Z,1.33
2023-01-15T23:02:08.804Z,1.30
2023-01-15T23:04:36.147Z,1.35
2023-01-15T23:07:03.079Z,1.30
2023-01-15T23:09:30.162Z,1.15
2023-01-15T23:11:57.203Z,1.30
2023-01-15T23:14:24.504Z,1.35
2023-01-15T23:16:51.653Z,1.15
2023-01-15T23:19:19.580Z,1.13
2023-01-15T23:21:46.658Z,1.10
2023-01-15T23:24:13.864Z,1.33
2023-01-15T23:26:40.607Z,1.30
2023-01-15T23:29:07.927Z,1.50
2023-01-15T23:31:35.039Z,1.35
2023-01-15T23:34:02.097Z,1.60
2023-01-15T23:36:29.292Z,1.40
2023-01-15T23:38:56.440Z,1.50
2023-01-15T23:41:44.285Z,1.55
2023-01-15T23:44:34.253Z,1.30
2023-01-15T23:47:01.394Z,1.50
2023-01-15T23:49:28.786Z,1.70
2023-01-15T23:51:56.198Z,1.38
2023-01-15T23:54:27.319Z,1.30
2023-01-15T23:56:54.394Z,1.70
2023-01-15T23:59:21.387Z,1.60
